Time;durP1;ratioP1;P1;durP2;ratioP2;P2;SDS_P1;SDS_P2;PMS_P1;PMS_P2;Temp;Humidity;BMP_temperature;BMP_pressure;BME280_temperature;BME280_humidity;BME280_pressure;Samples;Min_cycle;Max_cycle;Signal;HPM_P1;HPM_P2
2021/05/07 00:02:21;;;;;;;8.18;1.62;;;;;;;20.12;46.14;100884.84;143740;637;46018;-81
2021/05/07 00:04:48;;;;;;;6.75;1.60;;;;;;;20.03;46.46;100885.44;143742;589;46019;-79
2021/05/07 00:07:15;;;;;;;5.53;1.48;;;;;;;19.98;46.46;100882.22;143741;593;47008;-81
2021/05/07 00:09:42;;;;;;;7.82;1.67;;;;;;;19.97;46.28;100880.53;143742;589;47010;-83
2021/05/07 00:12:10;;;;;;;6.22;1.60;;;;;;;19.85;46.20;100882.16;143740;574;47010;-82
2021/05/07 00:14:37;;;;;;;4.72;1.50;;;;;;;19.88;46.43;100883.78;143739;603;47008;-85
2021/05/07 00:17:04;;;;;;;3.37;1.45;;;;;;;19.88;46.32;100886.44;143739;627;47010;-84
2021/05/07 00:19:31;;;;;;;3.45;1.50;;;;;;;19.81;46.36;100885.13;143743;585;47010;-88
2021/05/07 00:21:58;;;;;;;7.15;1.55;;;;;;;19.73;46.66;100886.44;143738;641;47011;-86
2021/05/07 00:24:25;;;;;;;3.75;1.20;;;;;;;19.73;46.41;100875.78;143740;573;47008;-83
2021/05/07 00:26:53;;;;;;;2.75;1.23;;;;;;;19.72;46.82;100868.72;143743;658;45026;-85
2021/05/07 00:29:21;;;;;;;5.28;1.20;;;;;;;19.77;46.17;100863.97;143743;608;47010;-84
2021/05/07 00:31:48;;;;;;;6.72;1.20;;;;;;;19.89;45.66;100856.19;143742;639;45908;-86
2021/05/07 00:34:15;;;;;;;6.53;1.40;;;;;;;19.99;45.43;100851.13;143740;587;47008;-88
2021/05/07 00:36:42;;;;;;;6.12;1.50;;;;;;;19.94;45.01;100856.72;143739;638;47008;-87
2021/05/07 00:39:09;;;;;;;5.05;1.50;;;;;;;19.84;45.63;100842.31;143741;572;47008;-86
2021/05/07 00:41:36;;;;;;;5.95;1.30;;;;;;;19.84;45.24;100844.97;143738;647;47010;-86
2021/05/07 00:44:04;;;;;;;4.85;1.48;;;;;;;19.85;45.51;100847.53;143740;606;46913;-81
2021/05/07 00:46:31;;;;;;;3.40;1.42;;;;;;;19.90;45.52;100853.44;143741;592;46018;-81
2021/05/07 00:48:58;;;;;;;4.15;1.25;;;;;;;19.90;45.72;100844.56;143740;589;47010;-81
2021/05/07 00:51:25;;;;;;;4.75;1.50;;;;;;;19.88;45.69;100843.81;143740;629;47010;-81
2021/05/07 00:53:52;;;;;;;3.42;1.30;;;;;;;19.95;45.76;100839.78;143740;573;47008;-80
2021/05/07 00:56:20;;;;;;;3.92;1.10;;;;;;;19.85;45.64;100836.03;143743;590;46016;-80
2021/05/07 00:58:47;;;;;;;6.85;1.40;;;;;;;19.80;45.77;100833.66;143743;591;46019;-80
2021/05/07 01:01:14;;;;;;;5.30;1.60;;;;;;;19.74;45.54;100834.88;143739;585;46016;-80
2021/05/07 01:03:41;;;;;;;6.05;1.50;;;;;;;19.72;45.83;100835.91;143741;616;47008;-89
2021/05/07 01:06:08;;;;;;;5.47;1.30;;;;;;;19.77;45.79;100837.34;143741;569;46019;-79
2021/05/07 01:08:37;;;;;;;7.57;1.37;;;;;;;19.72;46.32;100830.59;143743;621;47010;-83
2021/05/07 01:11:05;;;;;;;7.43;1.55;;;;;;;19.71;46.14;100827.09;143741;634;46028;-79
2021/05/07 01:13:33;;;;;;;6.72;2.00;;;;;;;19.70;46.28;100832.53;143740;594;46021;-81
2021/05/07 01:16:00;;;;;;;8.60;1.80;;;;;;;19.74;46.17;100828.69;143741;634;46008;-88
2021/05/07 01:18:28;;;;;;;7.93;1.92;;;;;;;19.83;46.25;100819.28;143744;626;47010;-81
2021/05/07 01:20:55;;;;;;;7.47;2.03;;;;;;;19.85;46.21;100828.03;143738;576;46020;-92
2021/05/07 01:23:22;;;;;;;8.88;1.90;;;;;;;19.88;46.47;100817.16;143740;598;47008;-87
2021/05/07 01:25:50;;;;;;;9.73;1.95;;;;;;;19.84;46.91;100813.00;143740;629;46018;-88
2021/05/07 01:28:17;;;;;;;7.30;2.35;;;;;;;19.82;47.05;100801.56;143742;610;46022;-85
2021/05/07 01:30:49;;;;;;;10.13;2.70;;;;;;;19.81;48.49;100799.87;143739;569;46908;-87
2021/05/07 01:33:18;;;;;;;5.85;2.50;;;;;;;19.81;49.37;100799.87;143739;587;46010;-83
2021/05/07 01:35:47;;;;;;;9.73;2.42;;;;;;;19.80;50.41;100793.69;143742;581;46018;-74
2021/05/07 01:38:16;;;;;;;5.90;2.37;;;;;;;19.74;51.73;100789.59;143740;713;47010;-74
2021/05/07 01:40:45;;;;;;;8.18;2.47;;;;;;;19.74;51.48;100794.06;143739;587;46018;-75
2021/05/07 01:43:13;;;;;;;8.73;2.40;;;;;;;19.70;51.41;100801.41;143741;657;46008;-73
2021/05/07 01:45:45;;;;;;;9.55;2.58;;;;;;;19.70;51.87;100806.72;143741;658;46018;-73
2021/05/07 01:48:13;;;;;;;7.80;2.40;;;;;;;19.73;51.68;100811.00;143741;569;47010;-73
2021/05/07 01:50:45;;;;;;;8.70;2.55;;;;;;;19.74;51.64;100818.03;143741;650;46010;-74
2021/05/07 01:53:13;;;;;;;9.15;2.30;;;;;;;19.76;51.16;100824.13;143739;595;46020;-74
2021/05/07 01:55:49;;;;;;;15.30;2.85;;;;;;;19.85;51.61;100833.37;143739;655;46008;-75
2021/05/07 01:58:17;;;;;;;7.15;2.30;;;;;;;19.87;51.08;100834.09;143741;583;46020;-79
2021/05/07 02:00:45;;;;;;;7.43;2.35;;;;;;;19.83;51.54;100838.78;143738;610;47021;-76
2021/05/07 02:03:13;;;;;;;9.90;2.70;;;;;;;19.87;51.42;100855.41;143743;681;46008;-77
2021/05/07 02:05:40;;;;;;;5.18;2.30;;;;;;;19.81;51.43;100853.16;143743;576;46008;-76
2021/05/07 02:08:08;;;;;;;10.18;2.30;;;;;;;19.79;51.05;100856.75;143741;581;46020;-76
2021/05/07 02:10:37;;;;;;;8.63;2.87;;;;;;;19.78;51.24;100859.50;143742;684;46010;-78
2021/05/07 02:13:08;;;;;;;7.10;2.05;;;;;;;19.72;51.23;100854.56;143738;569;46020;-77
2021/05/07 02:15:36;;;;;;;6.28;2.00;;;;;;;19.56;50.73;100847.56;143738;635;47010;-79
2021/05/07 02:18:06;;;;;;;7.25;2.00;;;;;;;19.64;50.78;100854.22;143741;580;46018;-79
2021/05/07 02:20:34;;;;;;;7.68;1.83;;;;;;;19.57;50.28;100840.41;143736;576;47011;-79
2021/05/07 02:23:01;;;;;;;4.45;1.70;;;;;;;19.56;50.06;100836.91;143738;674;46020;-79
2021/05/07 02:25:29;;;;;;;6.68;2.10;;;;;;;19.51;50.06;100846.16;143741;591;46016;-81
2021/05/07 02:27:58;;;;;;;6.57;1.83;;;;;;;19.45;50.03;100844.72;143739;591;46021;-80
2021/05/07 02:30:29;;;;;;;5.50;1.70;;;;;;;19.42;49.96;100845.78;143738;580;46016;-81
2021/05/07 02:32:57;;;;;;;10.40;1.70;;;;;;;19.35;49.43;100833.78;143738;583;46020;-79
2021/05/07 02:35:24;;;;;;;7.22;1.85;;;;;;;19.32;49.51;100826.00;143739;576;46008;-79
2021/05/07 02:37:52;;;;;;;3.90;1.50;;;;;;;19.32;49.34;100815.34;143739;671;46021;-80
2021/05/07 02:40:19;;;;;;;5.15;1.50;;;;;;;19.26;49.32;100805.12;143736;588;47010;-79
2021/05/07 02:42:47;;;;;;;6.10;1.67;;;;;;;19.27;49.41;100815.66;143739;577;46021;-77
2021/05/07 02:45:15;;;;;;;4.75;1.55;;;;;;;19.09;49.34;100814.13;143736;577;47008;-78
2021/05/07 02:47:42;;;;;;;8.07;1.65;;;;;;;19.14;49.61;100816.53;143740;596;47010;-79
2021/05/07 02:50:11;;;;;;;5.18;1.62;;;;;;;19.14;49.59;100822.69;143736;564;47011;-80
2021/05/07 02:52:40;;;;;;;6.45;1.60;;;;;;;19.22;49.47;100824.88;143737;583;47010;-80
2021/05/07 02:55:10;;;;;;;7.28;1.60;;;;;;;19.26;49.27;100831.72;143740;588;46008;-78
2021/05/07 02:57:37;;;;;;;6.57;1.70;;;;;;;19.28;49.19;100829.81;143738;588;46022;-77
2021/05/07 03:00:07;;;;;;;6.32;1.60;;;;;;;19.31;49.24;100834.94;143739;593;46031;-78
2021/05/07 03:02:34;;;;;;;7.07;1.70;;;;;;;19.19;49.29;100854.34;143739;633;46008;-78
2021/05/07 03:05:03;;;;;;;5.75;1.73;;;;;;;19.20;49.32;100848.06;143740;584;47009;-79
2021/05/07 03:07:30;;;;;;;5.68;1.77;;;;;;;19.20;49.43;100834.75;143740;605;46026;-79
2021/05/07 03:09:57;;;;;;;9.50;2.17;;;;;;;19.20;49.54;100838.25;143736;573;46018;-80
2021/05/07 03:12:24;;;;;;;9.25;2.37;;;;;;;19.19;49.69;100847.22;143739;579;46008;-80
2021/05/07 03:14:52;;;;;;;9.43;2.53;;;;;;;19.08;49.79;100855.88;143739;575;46016;-82
2021/05/07 03:17:19;;;;;;;9.40;2.60;;;;;;;19.06;50.39;100862.22;143738;604;47008;-82
2021/05/07 03:19:46;;;;;;;8.63;2.15;;;;;;;19.10;49.79;100861.09;143738;621;46017;-81
2021/05/07 03:22:13;;;;;;;7.12;2.03;;;;;;;19.12;49.93;100859.19;143738;589;46020;-81
2021/05/07 03:24:40;;;;;;;6.30;2.17;;;;;;;19.07;49.81;100870.13;143738;569;46026;-80
2021/05/07 03:27:07;;;;;;;7.05;2.58;;;;;;;19.04;50.17;100890.72;143740;580;47010;-80
2021/05/07 03:29:34;;;;;;;8.23;2.40;;;;;;;19.03;49.89;100889.88;143739;576;46010;-81
2021/05/07 03:32:01;;;;;;;12.10;3.10;;;;;;;18.97;49.92;100884.91;143741;579;46008;-77
2021/05/07 03:34:28;;;;;;;13.52;2.70;;;;;;;18.98;50.11;100868.00;143737;573;46008;-77
2021/05/07 03:36:55;;;;;;;9.40;2.30;;;;;;;19.03;50.18;100830.50;143741;564;47010;-80
2021/05/07 03:39:22;;;;;;;11.05;2.35;;;;;;;19.01;50.01;100846.53;143735;569;47010;-81
2021/05/07 03:41:49;;;;;;;7.65;2.20;;;;;;;18.93;50.08;100862.09;143739;571;46027;-80
2021/05/07 03:44:16;;;;;;;6.40;1.80;;;;;;;18.99;49.80;100864.41;143739;600;47024;-80
2021/05/07 03:46:44;;;;;;;5.40;2.05;;;;;;;19.05;49.48;100845.41;143739;587;47010;-81
2021/05/07 03:49:11;;;;;;;13.80;2.47;;;;;;;19.15;49.63;100839.50;143739;558;46020;-80
2021/05/07 03:51:38;;;;;;;8.18;2.10;;;;;;;19.16;49.48;100833.25;143739;566;47008;-81
2021/05/07 03:54:06;;;;;;;7.22;2.00;;;;;;;19.19;49.37;100830.37;143739;595;47010;-81
2021/05/07 03:56:33;;;;;;;5.10;1.67;;;;;;;19.10;49.55;100839.81;143740;606;47010;-85
2021/05/07 03:59:00;;;;;;;4.30;1.42;;;;;;;19.14;49.19;100822.69;143738;636;46016;-85
2021/05/07 04:01:27;;;;;;;7.55;1.33;;;;;;;19.09;49.23;100817.63;143741;654;46008;-85
2021/05/07 04:03:54;;;;;;;5.35;1.60;;;;;;;19.15;49.09;100818.22;143739;599;46018;-84
2021/05/07 04:06:22;;;;;;;7.35;2.03;;;;;;;19.15;49.04;100840.37;143742;579;47010;-82
2021/05/07 04:09:05;;;;;;;7.78;1.80;;;;;;;19.13;49.45;100836.94;143739;576;46016;-81
2021/05/07 04:14:19;;;;;;;9.73;2.65;;;;;;;19.32;49.61;100839.31;143739;595;47008;-74
2021/05/07 04:16:46;;;;;;;9.68;2.83;;;;;;;19.30;50.56;100848.34;143740;606;47010;-80
2021/05/07 04:19:13;;;;;;;7.85;2.85;;;;;;;19.39;51.45;100853.09;143736;583;47020;-80
2021/05/07 04:21:40;;;;;;;8.75;2.90;;;;;;;19.51;49.68;100865.62;143740;604;46008;-79
2021/05/07 04:24:08;;;;;;;8.65;2.87;;;;;;;19.61;49.62;100885.44;143738;563;46008;-80
2021/05/07 04:26:36;;;;;;;8.90;3.20;;;;;;;19.70;49.85;100899.94;143739;597;47008;-81
2021/05/07 04:29:03;;;;;;;10.48;3.17;;;;;;;19.82;49.47;100900.16;143738;655;47010;-80
2021/05/07 04:31:31;;;;;;;12.27;3.50;;;;;;;19.93;49.66;100887.00;143740;570;46020;-79
2021/05/07 04:33:58;;;;;;;9.45;3.20;;;;;;;20.00;50.02;100898.97;143741;580;46010;-80
2021/05/07 04:36:25;;;;;;;18.58;3.95;;;;;;;19.90;51.02;100900.50;143742;632;46021;-87
2021/05/07 04:38:56;;;;;;;10.25;3.53;;;;;;;20.00;50.01;100904.31;143737;579;46020;-92
2021/05/07 04:41:23;;;;;;;8.27;2.90;;;;;;;20.14;50.43;100913.22;143740;583;46020;-92
2021/05/07 04:43:51;;;;;;;10.65;2.83;;;;;;;20.02;51.98;100909.53;143741;574;45018;-91
2021/05/07 04:46:18;;;;;;;11.35;2.75;;;;;;;20.23;50.44;100905.47;143740;586;47010;-91
2021/05/07 04:48:45;;;;;;;7.97;2.47;;;;;;;20.48;50.16;100900.34;143737;636;46017;-90
2021/05/07 04:51:12;;;;;;;9.13;2.72;;;;;;;20.48;50.57;100901.19;143738;609;46021;-84
2021/05/07 04:53:40;;;;;;;9.63;2.80;;;;;;;20.58;50.31;100902.25;143738;637;46018;-86
2021/05/07 04:56:07;;;;;;;9.85;3.08;;;;;;;20.64;50.27;100903.69;143739;591;46022;-87
2021/05/07 04:58:34;;;;;;;12.80;3.12;;;;;;;20.78;49.97;100905.44;143735;611;47010;-85
2021/05/07 05:01:02;;;;;;;10.35;2.80;;;;;;;20.94;50.06;100902.56;143739;644;46008;-86
2021/05/07 05:03:29;;;;;;;15.27;2.75;;;;;;;21.00;50.14;100901.31;143741;604;46009;-86
2021/05/07 05:05:56;;;;;;;11.77;2.90;;;;;;;21.06;50.36;100907.06;143741;637;47010;-91
2021/05/07 05:08:25;;;;;;;11.85;2.90;;;;;;;21.18;50.47;100916.03;143738;612;46016;-91
2021/05/07 05:10:56;;;;;;;11.98;2.80;;;;;;;21.30;50.48;100909.00;143739;605;46008;-77
2021/05/07 05:13:24;;;;;;;16.08;2.87;;;;;;;21.48;50.81;100910.34;143736;620;47008;-82
2021/05/07 05:15:53;;;;;;;15.25;2.78;;;;;;;21.61;50.03;100917.53;143740;603;47008;-86
2021/05/07 05:18:35;;;;;;;10.35;2.40;;;;;;;21.85;49.44;100914.06;143741;574;46010;-85
2021/05/07 05:21:05;;;;;;;10.15;2.72;;;;;;;21.90;49.61;100909.25;143737;571;47008;-83
2021/05/07 05:23:34;;;;;;;17.17;3.15;;;;;;;21.98;49.67;100902.38;143740;577;46024;-88
2021/05/07 05:26:01;;;;;;;14.95;3.08;;;;;;;22.01;48.90;100897.75;143737;575;46008;-80
2021/05/07 05:28:28;;;;;;;13.30;2.60;;;;;;;22.07;49.21;100903.50;143735;618;46016;-81
2021/05/07 05:30:56;;;;;;;12.18;2.60;;;;;;;22.11;48.07;100907.66;143740;622;46008;-81
2021/05/07 05:33:23;;;;;;;14.40;2.65;;;;;;;22.23;48.86;100913.09;143739;570;46008;-78
2021/05/07 05:35:50;;;;;;;13.85;2.53;;;;;;;22.39;48.83;100915.47;143739;583;47028;-78
2021/05/07 05:38:17;;;;;;;11.98;2.75;;;;;;;22.40;48.73;100917.19;143737;593;46908;-80
2021/05/07 05:40:44;;;;;;;10.13;2.65;;;;;;;22.48;48.41;100923.69;143739;664;46008;-79
2021/05/07 05:43:11;;;;;;;14.00;3.37;;;;;;;22.61;48.51;100928.97;143739;583;46008;-78
2021/05/07 05:45:38;;;;;;;8.15;2.90;;;;;;;22.75;47.97;100929.75;143740;590;47010;-89
2021/05/07 05:48:08;;;;;;;11.68;3.00;;;;;;;22.79;48.00;100928.53;143737;587;47020;-79
2021/05/07 05:50:40;;;;;;;13.20;3.28;;;;;;;22.90;47.92;100925.88;143739;604;47010;-79
2021/05/07 05:53:07;;;;;;;7.12;2.60;;;;;;;23.01;47.61;100925.06;143737;569;46018;-78
2021/05/07 05:55:35;;;;;;;6.85;2.95;;;;;;;23.23;46.98;100923.44;143744;570;46019;-78
2021/05/07 05:58:03;;;;;;;11.35;3.15;;;;;;;23.35;46.99;100922.47;143737;591;47021;-78
2021/05/07 06:00:30;;;;;;;10.93;2.90;;;;;;;23.53;46.81;100912.09;143738;592;46027;-78
2021/05/07 06:02:57;;;;;;;11.00;3.25;;;;;;;23.65;46.01;100912.97;143734;574;47009;-78
2021/05/07 06:05:25;;;;;;;8.93;3.20;;;;;;;23.63;45.04;100909.53;143738;573;47010;-77
2021/05/07 06:07:52;;;;;;;11.55;3.35;;;;;;;23.56;44.47;100893.09;143739;604;46012;-80
2021/05/07 06:10:21;;;;;;;12.37;3.37;;;;;;;23.70;45.53;100926.81;143738;567;47008;-76
2021/05/07 06:12:49;;;;;;;13.05;3.03;;;;;;;23.79;45.32;100934.12;143738;578;46019;-76
2021/05/07 06:15:19;;;;;;;13.13;3.05;;;;;;;23.86;46.45;100944.38;143740;588;49010;-82
2021/05/07 06:17:47;;;;;;;12.02;3.00;;;;;;;24.01;45.80;100945.00;143736;588;47908;-81
2021/05/07 06:20:17;;;;;;;13.85;3.25;;;;;;;24.08;44.37;100946.19;143738;588;47008;-82
2021/05/07 06:22:46;;;;;;;7.60;2.72;;;;;;;23.99;44.38;100945.97;143738;633;46018;-78
2021/05/07 06:25:17;;;;;;;8.98;3.00;;;;;;;23.97;45.37;100960.47;143739;571;46020;-82
2021/05/07 06:27:44;;;;;;;11.43;2.97;;;;;;;23.81;45.35;100956.31;143736;621;46019;-81
2021/05/07 06:30:15;;;;;;;9.45;2.87;;;;;;;23.76;45.09;100957.69;143739;576;46008;-84
2021/05/07 06:32:42;;;;;;;8.23;2.92;;;;;;;23.77;45.49;100935.22;143738;578;47008;-85
2021/05/07 06:35:10;;;;;;;8.35;2.45;;;;;;;23.86;44.47;100958.63;143739;598;47008;-89
2021/05/07 06:37:38;;;;;;;9.90;2.15;;;;;;;23.91;43.93;100958.31;143739;580;46028;-79
2021/05/07 06:40:07;;;;;;;5.68;2.05;;;;;;;24.13;44.90;100938.63;143737;586;46020;-81
2021/05/07 06:42:37;;;;;;;8.75;2.03;;;;;;;24.16;45.16;100939.22;143738;626;46018;-87
2021/05/07 06:45:10;;;;;;;19.87;2.60;;;;;;;24.26;44.01;100938.47;143740;563;46008;-86
2021/05/07 06:47:37;;;;;;;18.05;3.03;;;;;;;24.29;43.24;100932.84;143736;566;47018;-88
2021/05/07 06:50:07;;;;;;;16.10;2.72;;;;;;;24.42;42.80;100938.91;143738;628;46913;-85
2021/05/07 06:52:34;;;;;;;10.05;2.20;;;;;;;24.71;42.83;100943.69;143739;727;46008;-87
2021/05/07 06:55:02;;;;;;;15.55;2.97;;;;;;;24.60;41.18;100949.06;143740;586;46020;-83
2021/05/07 06:57:30;;;;;;;11.25;2.15;;;;;;;24.82;42.94;100951.69;143740;583;46010;-85
2021/05/07 06:59:57;;;;;;;12.13;2.40;;;;;;;24.92;40.73;100945.53;143739;616;47008;-88
2021/05/07 07:02:24;;;;;;;15.98;2.45;;;;;;;25.18;41.53;100946.00;143740;617;46009;-86
2021/05/07 07:04:51;;;;;;;8.07;2.00;;;;;;;25.27;41.94;100938.97;143740;569;47011;-87
2021/05/07 07:07:18;;;;;;;10.27;2.50;;;;;;;25.37;41.87;100939.03;143740;641;46010;-86
2021/05/07 07:09:45;;;;;;;11.88;2.60;;;;;;;25.59;40.09;100938.87;143740;593;46011;-90
2021/05/07 07:12:13;;;;;;;10.95;2.35;;;;;;;25.85;40.34;100933.84;143740;626;46008;-85
2021/05/07 07:14:40;;;;;;;9.30;2.10;;;;;;;25.75;40.90;100940.19;143741;569;47010;-84
2021/05/07 07:17:08;;;;;;;11.48;2.40;;;;;;;25.86;41.21;100932.00;143736;623;46909;-86
2021/05/07 07:19:36;;;;;;;8.45;2.42;;;;;;;25.93;39.44;100933.19;143738;591;47008;-84
2021/05/07 07:22:05;;;;;;;9.90;2.50;;;;;;;26.20;40.89;100929.00;143735;570;47008;-85
2021/05/07 07:24:32;;;;;;;10.20;3.25;;;;;;;25.87;40.35;100938.25;143740;621;47006;-84
2021/05/07 07:27:00;;;;;;;7.97;2.17;;;;;;;25.85;40.07;100933.84;143737;746;46019;-86
2021/05/07 07:29:27;;;;;;;11.07;2.70;;;;;;;25.77;40.75;100914.87;143739;720;46020;-83
2021/05/07 07:31:54;;;;;;;10.38;2.47;;;;;;;25.81;41.20;100912.78;143739;585;45908;-83
2021/05/07 07:34:22;;;;;;;5.97;2.65;;;;;;;25.89;37.96;100912.06;143740;717;46009;-86
2021/05/07 07:36:50;;;;;;;7.00;2.20;;;;;;;26.07;39.49;100896.16;143737;565;46016;-86
2021/05/07 07:39:21;;;;;;;6.53;3.08;;;;;;;26.20;39.69;100898.56;143738;581;46912;-85
2021/05/07 07:41:49;;;;;;;10.48;2.65;;;;;;;26.30;39.11;100904.78;143737;754;46021;-83
2021/05/07 07:44:18;;;;;;;11.65;3.45;;;;;;;26.09;38.10;100896.84;143740;648;46008;-88
2021/05/07 07:46:45;;;;;;;5.95;2.70;;;;;;;26.12;38.06;100892.06;143737;668;46016;-86
2021/05/07 07:49:12;;;;;;;10.48;2.78;;;;;;;26.19;38.71;100897.72;143740;569;46026;-85
2021/05/07 07:51:40;;;;;;;6.07;2.20;;;;;;;26.15;37.73;100899.84;143739;587;47008;-85
2021/05/07 07:54:08;;;;;;;7.30;2.20;;;;;;;26.13;37.77;100899.09;143740;594;46010;-85
2021/05/07 07:56:36;;;;;;;6.57;2.30;;;;;;;26.18;38.13;100894.16;143739;569;46010;-84
2021/05/07 07:59:03;;;;;;;5.80;1.85;;;;;;;25.84;37.67;100873.00;143738;626;47008;-85
2021/05/07 08:01:31;;;;;;;14.48;2.62;;;;;;;26.05;38.73;100896.25;143737;602;47008;-82
2021/05/07 08:03:58;;;;;;;8.77;3.10;;;;;;;25.98;39.76;100900.47;143740;702;47011;-87
2021/05/07 08:06:34;;;;;;;6.28;2.65;;;;;;;26.02;39.64;100904.63;143740;597;46010;-87
2021/05/07 08:09:01;;;;;;;7.22;3.03;;;;;;;26.09;39.48;100892.31;143739;596;46008;-85
2021/05/07 08:11:28;;;;;;;7.30;2.00;;;;;;;25.87;36.67;100895.22;143739;745;46019;-89
2021/05/07 08:13:55;;;;;;;6.75;2.10;;;;;;;25.84;37.79;100896.34;143737;622;47008;-85
2021/05/07 08:16:23;;;;;;;8.23;1.80;;;;;;;25.90;38.95;100905.69;143735;595;47018;-86
2021/05/07 08:18:50;;;;;;;8.82;2.40;;;;;;;25.98;37.91;100897.78;143737;621;46021;-85
2021/05/07 08:21:17;;;;;;;7.62;2.17;;;;;;;26.28;36.97;100899.53;143739;569;46016;-85
2021/05/07 08:23:44;;;;;;;4.47;1.60;;;;;;;26.52;36.86;100904.50;143739;564;46020;-85
2021/05/07 08:26:11;;;;;;;5.45;1.73;;;;;;;26.44;35.64;100896.31;143738;625;47010;-85
2021/05/07 08:28:39;;;;;;;7.85;2.20;;;;;;;26.79;35.15;100889.50;143739;596;47008;-85
2021/05/07 08:31:06;;;;;;;4.72;1.67;;;;;;;26.97;34.84;100897.69;143738;569;46018;-87
2021/05/07 08:33:33;;;;;;;4.32;1.50;;;;;;;27.25;33.26;100899.59;143740;635;47022;-86
2021/05/07 08:36:00;;;;;;;4.37;1.50;;;;;;;26.75;34.41;100898.88;143737;599;46908;-86
2021/05/07 08:38:27;;;;;;;7.82;1.65;;;;;;;26.71;34.63;100893.88;143743;608;45011;-88
2021/05/07 08:40:56;;;;;;;6.32;1.65;;;;;;;26.96;34.74;100895.13;143739;601;47008;-88
2021/05/07 08:43:23;;;;;;;5.80;1.62;;;;;;;26.94;33.84;100889.91;143742;721;46008;-86
2021/05/07 08:45:50;;;;;;;6.40;1.90;;;;;;;26.93;34.58;100898.97;143738;619;46010;-89
2021/05/07 08:48:18;;;;;;;5.62;1.95;;;;;;;27.27;33.71;100897.56;143739;580;47009;-88
2021/05/07 08:50:51;;;;;;;7.70;1.83;;;;;;;27.18;34.21;100896.62;143738;576;47008;-86
2021/05/07 08:53:19;;;;;;;4.85;2.00;;;;;;;27.09;34.23;100892.97;143741;585;47006;-87
2021/05/07 08:55:48;;;;;;;4.10;1.65;;;;;;;26.90;35.36;100885.78;143737;626;46017;-86
2021/05/07 08:58:18;;;;;;;5.47;2.03;;;;;;;27.23;34.88;100883.56;143739;569;46020;-88
2021/05/07 09:00:45;;;;;;;4.28;1.60;;;;;;;27.02;34.04;100881.06;143738;635;46018;-86
2021/05/07 09:03:15;;;;;;;5.32;1.58;;;;;;;27.11;33.94;100893.66;143741;607;46023;-85
2021/05/07 09:05:42;;;;;;;12.57;2.00;;;;;;;26.79;34.69;100894.03;143738;566;47012;-83
2021/05/07 09:08:10;;;;;;;5.25;2.00;;;;;;;26.71;35.92;100894.75;143741;590;46008;-86
2021/05/07 09:10:45;;;;;;;7.40;2.10;;;;;;;26.74;34.98;100902.53;143739;599;46019;-86
2021/05/07 09:13:20;;;;;;;7.30;1.83;;;;;;;26.72;35.15;100893.75;143739;565;46020;-86
2021/05/07 09:15:52;;;;;;;4.78;1.70;;;;;;;26.95;35.71;100899.66;143739;610;47012;-86
2021/05/07 09:18:19;;;;;;;6.47;1.73;;;;;;;27.22;35.90;100897.19;143737;657;47008;-85
2021/05/07 09:20:51;;;;;;;8.43;1.90;;;;;;;27.47;35.69;100888.44;143739;572;46010;-87
2021/05/07 09:23:19;;;;;;;10.05;2.78;;;;;;;27.56;36.00;100886.72;143741;583;47022;-86
2021/05/07 09:25:59;;;;;;;5.22;2.15;;;;;;;27.72;36.02;100888.75;143738;648;46016;-87
2021/05/07 09:28:27;;;;;;;6.20;1.98;;;;;;;27.94;36.08;100883.91;143739;588;47008;-88
2021/05/07 09:31:15;;;;;;;8.02;1.85;;;;;;;27.96;35.93;100887.31;143741;690;46018;-86
2021/05/07 09:33:47;;;;;;;5.60;1.70;;;;;;;28.42;33.17;100879.16;143741;565;47008;-87
2021/05/07 09:36:29;;;;;;;9.52;1.75;;;;;;;28.26;33.60;100877.19;143739;572;46016;-86
2021/05/07 09:38:57;;;;;;;6.20;1.58;;;;;;;28.33;32.67;100881.81;143740;589;46025;-85
2021/05/07 09:41:24;;;;;;;6.05;1.60;;;;;;;28.18;32.72;100880.66;143741;590;46008;-86
2021/05/07 09:43:51;;;;;;;3.10;1.15;;;;;;;28.10;30.36;100850.87;143742;570;46018;-89
2021/05/07 09:46:18;;;;;;;6.62;1.40;;;;;;;28.35;30.13;100878.94;143735;575;47018;-89
2021/05/07 09:48:45;;;;;;;6.40;1.50;;;;;;;28.32;30.01;100876.56;143739;598;46008;-90
2021/05/07 09:51:13;;;;;;;5.55;1.50;;;;;;;28.23;29.59;100866.69;143740;745;46016;-89
2021/05/07 09:53:42;;;;;;;11.43;1.62;;;;;;;27.99;29.54;100851.94;143741;566;46020;-89
2021/05/07 09:56:21;;;;;;;4.87;1.50;;;;;;;27.98;30.34;100856.50;143739;579;46010;-85
2021/05/07 09:58:48;;;;;;;4.07;1.50;;;;;;;27.92;30.46;100848.16;143739;740;46010;-84
2021/05/07 10:01:15;;;;;;;5.82;1.60;;;;;;;27.83;30.76;100829.19;143740;569;47010;-85
2021/05/07 10:03:42;;;;;;;2.80;1.30;;;;;;;27.85;30.58;100848.75;143743;596;46008;-82
2021/05/07 10:06:10;;;;;;;5.50;1.45;;;;;;;27.95;30.68;100848.69;143739;566;46016;-78
2021/05/07 10:08:47;;;;;;;4.82;1.20;;;;;;;28.14;28.22;100847.72;143740;625;46008;-75
2021/05/07 10:11:15;;;;;;;5.62;1.30;;;;;;;27.88;29.14;100842.22;143740;680;46016;-80
2021/05/07 10:13:44;;;;;;;2.78;1.30;;;;;;;27.96;30.15;100841.47;143742;650;46018;-77
2021/05/07 10:16:12;;;;;;;5.22;1.80;;;;;;;28.04;29.19;100819.97;143741;576;46010;-75
2021/05/07 10:18:41;;;;;;;5.12;1.33;;;;;;;28.20;27.53;100843.56;143741;583;46021;-77
2021/05/07 10:21:14;;;;;;;4.40;1.35;;;;;;;28.27;27.56;100841.06;143740;574;47008;-70
2021/05/07 10:23:53;;;;;;;;;;;;;;;28.26;27.36;100851.03;143745;953;46021;-71
2021/05/07 10:26:38;;;;;;;5.12;1.50;;;;;;;28.44;26.26;100845.62;143748;655;47019;-76
2021/05/07 10:29:26;;;;;;;5.43;1.30;;;;;;;28.18;26.00;100788.88;143742;636;46010;-74
2021/05/07 10:31:59;;;;;;;5.22;1.23;;;;;;;28.20;26.01;100821.97;143741;574;46019;-76
2021/05/07 10:34:28;;;;;;;6.28;1.30;;;;;;;28.00;26.84;100818.59;143741;572;46023;-77
2021/05/07 10:37:14;;;;;;;4.85;1.20;;;;;;;28.39;26.24;100820.09;143740;608;46016;-77
2021/05/07 10:39:56;;;;;;;3.70;1.20;;;;;;;28.42;24.51;100817.94;143741;585;46021;-78
2021/05/07 10:42:23;;;;;;;5.68;1.50;;;;;;;28.51;24.69;100811.59;143742;699;47010;-79
2021/05/07 10:44:50;;;;;;;5.45;1.10;;;;;;;28.52;24.20;100812.44;143743;570;47012;-79
2021/05/07 10:47:18;;;;;;;2.78;0.93;;;;;;;28.54;25.32;100819.38;143740;564;46911;-79
2021/05/07 10:49:45;;;;;;;2.87;0.90;;;;;;;28.60;22.18;100817.06;143743;635;46034;-80
2021/05/07 10:52:14;;;;;;;3.25;0.93;;;;;;;28.72;23.80;100823.91;143740;593;46018;-79
2021/05/07 10:54:49;;;;;;;3.35;0.90;;;;;;;28.49;23.72;100823.56;143742;604;47021;-80
2021/05/07 10:57:37;;;;;;;3.97;1.33;;;;;;;28.46;23.78;100832.81;143740;564;46016;-80
2021/05/07 11:00:09;;;;;;;2.75;0.90;;;;;;;28.49;24.21;100827.09;143739;630;46020;-78
2021/05/07 11:02:51;;;;;;;4.57;1.08;;;;;;;28.45;24.89;100822.19;143738;660;47010;-81
2021/05/07 11:05:50;;;;;;;5.07;1.20;;;;;;;28.40;24.02;100817.22;143744;691;46010;-79
2021/05/07 11:08:19;;;;;;;4.57;1.30;;;;;;;28.41;23.45;100818.09;143740;581;46015;-80
2021/05/07 11:10:49;;;;;;;7.18;1.23;;;;;;;28.50;24.08;100815.28;143738;569;46021;-79
2021/05/07 11:13:17;;;;;;;7.45;1.20;;;;;;;28.33;22.50;100811.59;143742;675;46016;-80
2021/05/07 11:15:48;;;;;;;1.90;0.85;;;;;;;28.41;22.79;100800.03;143744;691;47012;-81
2021/05/07 11:18:28;;;;;;;7.18;1.20;;;;;;;28.39;23.04;100802.06;143742;583;45041;-80
2021/05/07 11:20:57;;;;;;;3.80;1.10;;;;;;;28.69;24.39;100814.28;143741;585;46010;-79
2021/05/07 11:23:30;;;;;;;3.80;1.12;;;;;;;28.53;24.12;100804.16;143742;622;46010;-79
2021/05/07 11:26:07;;;;;;;5.22;1.12;;;;;;;28.59;24.29;100808.09;143741;682;46020;-80
2021/05/07 11:28:43;;;;;;;5.75;1.30;;;;;;;28.52;25.03;100798.94;143736;579;47012;-79
2021/05/07 11:31:13;;;;;;;4.93;1.17;;;;;;;28.41;23.93;100797.34;143742;730;46030;-78
2021/05/07 11:33:43;;;;;;;5.32;1.12;;;;;;;28.33;23.03;100790.00;143742;629;46010;-81
2021/05/07 11:36:13;;;;;;;4.72;1.10;;;;;;;28.06;25.28;100788.28;143744;577;46010;-80